sensor_id;sensor_type;location;lat;lon;timestamp;pressure;altitude;pressure_sealevel;temperature;humidity
11343;BME280;5726;42.160;24.746;2022-12-18T00:01:37;100195.41;;;12.17;100.00
11343;BME280;5726;42.160;24.746;2022-12-18T00:04:04;100185.69;;;12.21;100.00
11343;BME280;5726;42.160;24.746;2022-12-18T00:06:31;100181.53;;;12.05;100.00
11343;BME280;5726;42.160;24.746;2022-12-18T00:08:59;100178.16;;;12.23;100.00
11343;BME280;5726;42.160;24.746;2022-12-18T00:11:27;100196.56;;;12.40;100.00
11343;BME280;5726;42.160;24.746;2022-12-18T00:13:55;100202.16;;;12.43;100.00
11343;BME280;5726;42.160;24.746;2022-12-18T00:16:22;100201.94;;;12.40;100.00
11343;BME280;5726;42.160;24.746;2022-12-18T00:18:49;100220.97;;;12.71;100.00
11343;BME280;5726;42.160;24.746;2022-12-18T00:21:15;100220.31;;;12.56;100.00
11343;BME280;5726;42.160;24.746;2022-12-18T00:23:43;100233.63;;;12.42;100.00
11343;BME280;5726;42.160;24.746;2022-12-18T00:26:14;100239.84;;;12.38;100.00
11343;BME280;5726;42.160;24.746;2022-12-18T00:28:40;100233.94;;;12.36;100.00
11343;BME280;5726;42.160;24.746;2022-12-18T00:31:12;100241.41;;;12.44;100.00
11343;BME280;5726;42.160;24.746;2022-12-18T00:33:38;100240.72;;;12.62;100.00
11343;BME280;5726;42.160;24.746;2022-12-18T00:36:06;100242.41;;;12.53;100.00
11343;BME280;5726;42.160;24.746;2022-12-18T00:38:32;100237.53;;;12.55;100.00
11343;BME280;5726;42.160;24.746;2022-12-18T00:40:58;100243.63;;;12.65;100.00
11343;BME280;5726;42.160;24.746;2022-12-18T00:43:23;100247.97;;;12.61;100.00
11343;BME280;5726;42.160;24.746;2022-12-18T00:45:49;100249.44;;;12.49;100.00
11343;BME280;5726;42.160;24.746;2022-12-18T00:48:14;100252.88;;;12.54;100.00
11343;BME280;5726;42.160;24.746;2022-12-18T00:50:40;100265.78;;;12.57;100.00
11343;BME280;5726;42.160;24.746;2022-12-18T00:53:05;100269.13;;;12.73;100.00
11343;BME280;5726;42.160;24.746;2022-12-18T00:55:31;100260.97;;;12.49;100.00
11343;BME280;5726;42.160;24.746;2022-12-18T00:57:57;100270.41;;;12.14;100.00
11343;BME280;5726;42.160;24.746;2022-12-18T01:00:22;100267.00;;;12.03;100.00
11343;BME280;5726;42.160;24.746;2022-12-18T01:02:48;100259.72;;;12.09;100.00
11343;BME280;5726;42.160;24.746;2022-12-18T01:05:14;100260.78;;;12.13;100.00
11343;BME280;5726;42.160;24.746;2022-12-18T01:07:39;100259.31;;;12.25;100.00
11343;BME280;5726;42.160;24.746;2022-12-18T01:10:06;100266.72;;;12.10;100.00
11343;BME280;5726;42.160;24.746;2022-12-18T01:12:32;100260.34;;;11.96;100.00
11343;BME280;5726;42.160;24.746;2022-12-18T01:14:57;100261.25;;;11.77;100.00
11343;BME280;5726;42.160;24.746;2022-12-18T01:17:23;100260.16;;;11.83;100.00
11343;BME280;5726;42.160;24.746;2022-12-18T01:19:48;100248.78;;;11.95;100.00
11343;BME280;5726;42.160;24.746;2022-12-18T01:22:14;100251.53;;;11.86;100.00
11343;BME280;5726;42.160;24.746;2022-12-18T01:24:39;100257.44;;;11.88;100.00
11343;BME280;5726;42.160;24.746;2022-12-18T01:27:05;100265.84;;;11.76;100.00
11343;BME280;5726;42.160;24.746;2022-12-18T01:29:30;100259.03;;;11.89;100.00
11343;BME280;5726;42.160;24.746;2022-12-18T01:31:56;100264.13;;;11.95;100.00
11343;BME280;5726;42.160;24.746;2022-12-18T01:34:22;100265.59;;;12.11;100.00
11343;BME280;5726;42.160;24.746;2022-12-18T01:36:47;100266.97;;;12.08;100.00
11343;BME280;5726;42.160;24.746;2022-12-18T01:39:14;100261.00;;;12.16;100.00
11343;BME280;5726;42.160;24.746;2022-12-18T01:41:41;100264.19;;;12.18;100.00
11343;BME280;5726;42.160;24.746;2022-12-18T01:47:20;100267.50;;;12.43;100.00
11343;BME280;5726;42.160;24.746;2022-12-18T01:49:46;100260.19;;;12.49;100.00
11343;BME280;5726;42.160;24.746;2022-12-18T01:52:13;100260.13;;;12.54;100.00
11343;BME280;5726;42.160;24.746;2022-12-18T01:54:39;100270.59;;;12.60;100.00
11343;BME280;5726;42.160;24.746;2022-12-18T01:57:04;100266.34;;;12.54;100.00
11343;BME280;5726;42.160;24.746;2022-12-18T01:59:31;100266.94;;;12.46;100.00
11343;BME280;5726;42.160;24.746;2022-12-18T02:01:59;100268.22;;;12.54;100.00
11343;BME280;5726;42.160;24.746;2022-12-18T02:04:26;100271.63;;;12.31;100.00
11343;BME280;5726;42.160;24.746;2022-12-18T02:09:46;100266.75;;;12.00;100.00
11343;BME280;5726;42.160;24.746;2022-12-18T02:12:18;100283.31;;;12.17;100.00
11343;BME280;5726;42.160;24.746;2022-12-18T02:14:59;100279.09;;;12.06;100.00
11343;BME280;5726;42.160;24.746;2022-12-18T02:17:58;100280.84;;;11.82;100.00
11343;BME280;5726;42.160;24.746;2022-12-18T02:20:28;100287.66;;;12.08;100.00
11343;BME280;5726;42.160;24.746;2022-12-18T02:28:23;100294.44;;;12.00;100.00
11343;BME280;5726;42.160;24.746;2022-12-18T02:30:53;100302.66;;;12.19;100.00
11343;BME280;5726;42.160;24.746;2022-12-18T02:33:21;100300.63;;;12.01;100.00
11343;BME280;5726;42.160;24.746;2022-12-18T02:35:48;100298.75;;;12.01;100.00
11343;BME280;5726;42.160;24.746;2022-12-18T02:38:15;100291.69;;;12.10;100.00
11343;BME280;5726;42.160;24.746;2022-12-18T02:40:42;100294.03;;;12.22;100.00
11343;BME280;5726;42.160;24.746;2022-12-18T02:43:10;100284.34;;;12.21;100.00
11343;BME280;5726;42.160;24.746;2022-12-18T02:45:45;100284.41;;;12.16;100.00
11343;BME280;5726;42.160;24.746;2022-12-18T02:48:11;100282.38;;;11.93;100.00
11343;BME280;5726;42.160;24.746;2022-12-18T02:50:45;100279.66;;;12.03;100.00
11343;BME280;5726;42.160;24.746;2022-12-18T02:53:25;100280.94;;;12.10;100.00
11343;BME280;5726;42.160;24.746;2022-12-18T03:04:01;100290.63;;;12.06;100.00
11343;BME280;5726;42.160;24.746;2022-12-18T03:06:40;100293.78;;;12.18;100.00
11343;BME280;5726;42.160;24.746;2022-12-18T03:09:14;100298.13;;;12.09;100.00
11343;BME280;5726;42.160;24.746;2022-12-18T03:11:46;100299.69;;;12.20;100.00
11343;BME280;5726;42.160;24.746;2022-12-18T03:14:33;100297.47;;;11.89;100.00
11343;BME280;5726;42.160;24.746;2022-12-18T03:17:02;100295.06;;;11.88;100.00
11343;BME280;5726;42.160;24.746;2022-12-18T03:19:32;100304.72;;;11.93;100.00
11343;BME280;5726;42.160;24.746;2022-12-18T03:22:00;100295.50;;;12.04;100.00
11343;BME280;5726;42.160;24.746;2022-12-18T03:24:29;100307.59;;;12.02;100.00
11343;BME280;5726;42.160;24.746;2022-12-18T03:27:00;100312.13;;;12.11;100.00
11343;BME280;5726;42.160;24.746;2022-12-18T03:32:01;100309.22;;;12.41;100.00
11343;BME280;5726;42.160;24.746;2022-12-18T03:34:34;100313.19;;;12.48;100.00
11343;BME280;5726;42.160;24.746;2022-12-18T03:37:02;100315.72;;;12.35;100.00
11343;BME280;5726;42.160;24.746;2022-12-18T03:39:28;100326.63;;;12.10;100.00
11343;BME280;5726;42.160;24.746;2022-12-18T03:42:30;100325.19;;;12.23;100.00
11343;BME280;5726;42.160;24.746;2022-12-18T03:45:18;100335.03;;;11.99;100.00
11343;BME280;5726;42.160;24.746;2022-12-18T03:48:14;100341.94;;;12.15;100.00
11343;BME280;5726;42.160;24.746;2022-12-18T03:50:57;100348.25;;;11.91;100.00
11343;BME280;5726;42.160;24.746;2022-12-18T03:54:02;100352.16;;;12.13;100.00
11343;BME280;5726;42.160;24.746;2022-12-18T03:56:30;100352.16;;;12.13;100.00
11343;BME280;5726;42.160;24.746;2022-12-18T03:58:58;100350.22;;;12.18;100.00
11343;BME280;5726;42.160;24.746;2022-12-18T04:01:35;100354.88;;;12.08;100.00
11343;BME280;5726;42.160;24.746;2022-12-18T04:04:04;100360.59;;;11.92;100.00
11343;BME280;5726;42.160;24.746;2022-12-18T04:06:31;100358.53;;;11.79;100.00
11343;BME280;5726;42.160;24.746;2022-12-18T04:08:58;100364.91;;;11.93;100.00
11343;BME280;5726;42.160;24.746;2022-12-18T04:11:23;100366.75;;;11.97;100.00
11343;BME280;5726;42.160;24.746;2022-12-18T04:13:49;100356.88;;;11.88;100.00
11343;BME280;5726;42.160;24.746;2022-12-18T04:16:14;100371.63;;;11.90;100.00
11343;BME280;5726;42.160;24.746;2022-12-18T04:18:40;100370.31;;;11.88;100.00
11343;BME280;5726;42.160;24.746;2022-12-18T04:21:06;100370.88;;;11.85;100.00
11343;BME280;5726;42.160;24.746;2022-12-18T04:23:31;100370.31;;;11.83;100.00
11343;BME280;5726;42.160;24.746;2022-12-18T04:25:57;100368.25;;;11.70;100.00
11343;BME280;5726;42.160;24.746;2022-12-18T04:28:22;100379.75;;;11.75;100.00
11343;BME280;5726;42.160;24.746;2022-12-18T04:30:48;100383.00;;;11.67;100.00
11343;BME280;5726;42.160;24.746;2022-12-18T04:33:16;100383.75;;;11.83;100.00
11343;BME280;5726;42.160;24.746;2022-12-18T04:35:42;100383.31;;;11.56;100.00
11343;BME280;5726;42.160;24.746;2022-12-18T04:38:08;100391.31;;;11.71;100.00
11343;BME280;5726;42.160;24.746;2022-12-18T04:40:35;100383.28;;;11.66;100.00
11343;BME280;5726;42.160;24.746;2022-12-18T04:43:01;100382.28;;;11.52;100.00
11343;BME280;5726;42.160;24.746;2022-12-18T04:45:26;100379.06;;;11.40;100.00
11343;BME280;5726;42.160;24.746;2022-12-18T04:47:52;100390.31;;;11.32;100.00
11343;BME280;5726;42.160;24.746;2022-12-18T04:50:17;100394.88;;;11.37;100.00
11343;BME280;5726;42.160;24.746;2022-12-18T04:52:42;100400.00;;;11.33;100.00
11343;BME280;5726;42.160;24.746;2022-12-18T04:55:08;100401.63;;;11.34;100.00
11343;BME280;5726;42.160;24.746;2022-12-18T04:57:33;100403.25;;;11.25;100.00
11343;BME280;5726;42.160;24.746;2022-12-18T04:59:59;100405.38;;;11.08;100.00
11343;BME280;5726;42.160;24.746;2022-12-18T05:02:24;100412.91;;;11.06;100.00
11343;BME280;5726;42.160;24.746;2022-12-18T05:04:50;100421.50;;;11.03;100.00
11343;BME280;5726;42.160;24.746;2022-12-18T05:07:15;100422.03;;;11.05;100.00
11343;BME280;5726;42.160;24.746;2022-12-18T05:09:40;100433.31;;;11.02;100.00
11343;BME280;5726;42.160;24.746;2022-12-18T05:12:06;100424.75;;;10.96;100.00
11343;BME280;5726;42.160;24.746;2022-12-18T05:14:31;100447.25;;;10.95;100.00
11343;BME280;5726;42.160;24.746;2022-12-18T05:16:57;100436.25;;;10.81;100.00
11343;BME280;5726;42.160;24.746;2022-12-18T05:19:22;100446.16;;;10.76;100.00
11343;BME280;5726;42.160;24.746;2022-12-18T05:21:48;100457.44;;;10.83;100.00
11343;BME280;5726;42.160;24.746;2022-12-18T05:24:13;100457.44;;;10.83;100.00
11343;BME280;5726;42.160;24.746;2022-12-18T05:26:38;100460.94;;;10.78;100.00
11343;BME280;5726;42.160;24.746;2022-12-18T05:29:04;100465.53;;;10.93;100.00
11343;BME280;5726;42.160;24.746;2022-12-18T05:31:29;100471.41;;;10.95;100.00
11343;BME280;5726;42.160;24.746;2022-12-18T05:33:55;100485.34;;;10.96;100.00
11343;BME280;5726;42.160;24.746;2022-12-18T05:36:20;100489.13;;;10.81;100.00
11343;BME280;5726;42.160;24.746;2022-12-18T05:38:46;100496.09;;;10.87;100.00
11343;BME280;5726;42.160;24.746;2022-12-18T05:41:11;100496.09;;;10.87;100.00
11343;BME280;5726;42.160;24.746;2022-12-18T05:43:38;100495.28;;;10.96;100.00
11343;BME280;5726;42.160;24.746;2022-12-18T05:46:05;100505.75;;;10.88;100.00
11343;BME280;5726;42.160;24.746;2022-12-18T05:48:31;100501.47;;;10.87;100.00
11343;BME280;5726;42.160;24.746;2022-12-18T05:51:03;100498.22;;;10.85;100.00
11343;BME280;5726;42.160;24.746;2022-12-18T05:53:29;100505.22;;;10.81;100.00
11343;BME280;5726;42.160;24.746;2022-12-18T05:55:54;100504.94;;;10.82;100.00
11343;BME280;5726;42.160;24.746;2022-12-18T05:58:24;100518.09;;;10.84;100.00
11343;BME280;5726;42.160;24.746;2022-12-18T06:00:50;100528.25;;;10.77;100.00
11343;BME280;5726;42.160;24.746;2022-12-18T06:03:15;100519.16;;;10.78;100.00
11343;BME280;5726;42.160;24.746;2022-12-18T06:05:43;100524.78;;;10.76;100.00
11343;BME280;5726;42.160;24.746;2022-12-18T06:08:09;100525.34;;;10.88;100.00
11343;BME280;5726;42.160;24.746;2022-12-18T06:10:36;100532.56;;;10.88;100.00
11343;BME280;5726;42.160;24.746;2022-12-18T06:13:01;100531.81;;;11.12;100.00
11343;BME280;5726;42.160;24.746;2022-12-18T06:15:27;100536.94;;;11.43;100.00
11343;BME280;5726;42.160;24.746;2022-12-18T06:17:52;100535.03;;;11.43;100.00
11343;BME280;5726;42.160;24.746;2022-12-18T06:20:18;100536.09;;;11.43;100.00
11343;BME280;5726;42.160;24.746;2022-12-18T06:22:43;100537.44;;;11.35;100.00
11343;BME280;5726;42.160;24.746;2022-12-18T06:25:09;100549.56;;;11.52;100.00
11343;BME280;5726;42.160;24.746;2022-12-18T06:27:34;100555.19;;;11.46;100.00
11343;BME280;5726;42.160;24.746;2022-12-18T06:30:02;100556.00;;;11.27;100.00
11343;BME280;5726;42.160;24.746;2022-12-18T06:32:27;100560.56;;;11.36;100.00
11343;BME280;5726;42.160;24.746;2022-12-18T06:34:53;100561.34;;;11.22;100.00
11343;BME280;5726;42.160;24.746;2022-12-18T06:37:20;100561.59;;;11.20;100.00
11343;BME280;5726;42.160;24.746;2022-12-18T06:39:46;100562.69;;;11.09;100.00
11343;BME280;5726;42.160;24.746;2022-12-18T06:42:12;100571.28;;;11.16;100.00
11343;BME280;5726;42.160;24.746;2022-12-18T06:44:37;100578.78;;;11.14;100.00
11343;BME280;5726;42.160;24.746;2022-12-18T06:47:03;100590.03;;;11.11;100.00
11343;BME280;5726;42.160;24.746;2022-12-18T06:49:28;100598.06;;;10.96;100.00
11343;BME280;5726;42.160;24.746;2022-12-18T06:51:54;100598.13;;;11.16;100.00
11343;BME280;5726;42.160;24.746;2022-12-18T06:54:19;100614.72;;;11.08;100.00
11343;BME280;5726;42.160;24.746;2022-12-18T06:56:45;100607.78;;;11.17;100.00
11343;BME280;5726;42.160;24.746;2022-12-18T06:59:12;100612.56;;;11.05;100.00
11343;BME280;5726;42.160;24.746;2022-12-18T07:01:38;100615.56;;;11.14;100.00
11343;BME280;5726;42.160;24.746;2022-12-18T07:04:03;100615.28;;;11.20;100.00
11343;BME280;5726;42.160;24.746;2022-12-18T07:06:29;100620.75;;;11.50;100.00
11343;BME280;5726;42.160;24.746;2022-12-18T07:08:54;100619.09;;;11.34;100.00
11343;BME280;5726;42.160;24.746;2022-12-18T07:11:20;100628.22;;;11.38;100.00
11343;BME280;5726;42.160;24.746;2022-12-18T07:13:46;100625.75;;;11.17;100.00
11343;BME280;5726;42.160;24.746;2022-12-18T07:16:16;100635.19;;;11.19;100.00
11343;BME280;5726;42.160;24.746;2022-12-18T07:18:43;100634.16;;;11.40;100.00
11343;BME280;5726;42.160;24.746;2022-12-18T07:21:13;100629.81;;;11.44;100.00
11343;BME280;5726;42.160;24.746;2022-12-18T07:23:39;100637.59;;;11.31;100.00
11343;BME280;5726;42.160;24.746;2022-12-18T07:26:06;100641.63;;;11.38;100.00
11343;BME280;5726;42.160;24.746;2022-12-18T07:28:33;100647.56;;;11.40;100.00
11343;BME280;5726;42.160;24.746;2022-12-18T07:31:06;100644.59;;;11.32;100.00
11343;BME280;5726;42.160;24.746;2022-12-18T07:33:33;100646.44;;;11.26;100.00
11343;BME280;5726;42.160;24.746;2022-12-18T07:35:59;100649.38;;;11.15;100.00
11343;BME280;5726;42.160;24.746;2022-12-18T07:38:24;100640.50;;;11.14;100.00
11343;BME280;5726;42.160;24.746;2022-12-18T07:40:50;100646.13;;;11.13;100.00
11343;BME280;5726;42.160;24.746;2022-12-18T07:43:15;100654.47;;;11.11;100.00
11343;BME280;5726;42.160;24.746;2022-12-18T07:45:42;100647.47;;;11.05;100.00
11343;BME280;5726;42.160;24.746;2022-12-18T07:48:07;100647.94;;;10.88;100.00
11343;BME280;5726;42.160;24.746;2022-12-18T07:50:33;100657.44;;;11.25;100.00
11343;BME280;5726;42.160;24.746;2022-12-18T07:52:58;100654.75;;;11.20;100.00
11343;BME280;5726;42.160;24.746;2022-12-18T07:55:31;100667.38;;;11.19;100.00
11343;BME280;5726;42.160;24.746;2022-12-18T07:58:00;100668.50;;;11.33;100.00
11343;BME280;5726;42.160;24.746;2022-12-18T08:00:25;100674.94;;;11.37;100.00
11343;BME280;5726;42.160;24.746;2022-12-18T08:02:51;100680.31;;;11.37;100.00
11343;BME280;5726;42.160;24.746;2022-12-18T08:05:16;100683.53;;;11.39;100.00
11343;BME280;5726;42.160;24.746;2022-12-18T08:07:42;100686.22;;;11.34;100.00
11343;BME280;5726;42.160;24.746;2022-12-18T08:10:08;100687.50;;;11.22;100.00
11343;BME280;5726;42.160;24.746;2022-12-18T08:12:33;100688.34;;;11.32;100.00
11343;BME280;5726;42.160;24.746;2022-12-18T08:14:59;100700.72;;;11.33;100.00
11343;BME280;5726;42.160;24.746;2022-12-18T08:17:24;100701.75;;;11.27;100.00
11343;BME280;5726;42.160;24.746;2022-12-18T08:19:50;100696.66;;;11.21;100.00
11343;BME280;5726;42.160;24.746;2022-12-18T08:22:15;100703.91;;;11.30;100.00
11343;BME280;5726;42.160;24.746;2022-12-18T08:24:41;100701.50;;;11.34;100.00
11343;BME280;5726;42.160;24.746;2022-12-18T08:27:06;100710.66;;;11.38;100.00
11343;BME280;5726;42.160;24.746;2022-12-18T08:29:31;100703.66;;;11.37;100.00
11343;BME280;5726;42.160;24.746;2022-12-18T08:31:57;100703.91;;;11.35;100.00
11343;BME280;5726;42.160;24.746;2022-12-18T08:34:23;100708.03;;;11.47;100.00
11343;BME280;5726;42.160;24.746;2022-12-18T08:36:48;100710.91;;;11.41;100.00
11343;BME280;5726;42.160;24.746;2022-12-18T08:39:14;100704.25;;;11.48;100.00
11343;BME280;5726;42.160;24.746;2022-12-18T08:41:39;100713.03;;;11.29;100.00
11343;BME280;5726;42.160;24.746;2022-12-18T08:44:07;100712.63;;;11.52;100.00
11343;BME280;5726;42.160;24.746;2022-12-18T08:46:51;100697.56;;;11.51;100.00
11343;BME280;5726;42.160;24.746;2022-12-18T08:49:16;100706.44;;;11.56;100.00
11343;BME280;5726;42.160;24.746;2022-12-18T08:51:42;100703.41;;;11.38;100.00
11343;BME280;5726;42.160;24.746;2022-12-18T08:54:09;100694.34;;;11.49;100.00
11343;BME280;5726;42.160;24.746;2022-12-18T08:56:36;100702.66;;;11.47;100.00
11343;BME280;5726;42.160;24.746;2022-12-18T08:59:01;100691.66;;;11.49;100.00
11343;BME280;5726;42.160;24.746;2022-12-18T09:01:27;100697.03;;;11.54;100.00
11343;BME280;5726;42.160;24.746;2022-12-18T09:03:53;100692.50;;;11.74;100.00
11343;BME280;5726;42.160;24.746;2022-12-18T09:06:20;100700.00;;;11.67;100.00
11343;BME280;5726;42.160;24.746;2022-12-18T09:08:46;100702.16;;;11.75;100.00
11343;BME280;5726;42.160;24.746;2022-12-18T09:11:26;100694.38;;;11.89;100.00
11343;BME280;5726;42.160;24.746;2022-12-18T09:13:52;100704.06;;;11.70;100.00
11343;BME280;5726;42.160;24.746;2022-12-18T09:16:19;100705.13;;;11.84;100.00
11343;BME280;5726;42.160;24.746;2022-12-18T09:18:46;100699.22;;;11.67;100.00
11343;BME280;5726;42.160;24.746;2022-12-18T09:21:18;100690.88;;;11.78;100.00
11343;BME280;5726;42.160;24.746;2022-12-18T09:23:51;100688.47;;;11.82;100.00
11343;BME280;5726;42.160;24.746;2022-12-18T09:26:16;100699.75;;;11.74;100.00
11343;BME280;5726;42.160;24.746;2022-12-18T09:28:42;100692.47;;;11.69;100.00
11343;BME280;5726;42.160;24.746;2022-12-18T09:31:08;100695.72;;;11.76;100.00
11343;BME280;5726;42.160;24.746;2022-12-18T09:33:35;100700.84;;;11.73;100.00
11343;BME280;5726;42.160;24.746;2022-12-18T09:36:05;100701.09;;;11.76;100.00
11343;BME280;5726;42.160;24.746;2022-12-18T09:38:32;100705.41;;;11.82;100.00
11343;BME280;5726;42.160;24.746;2022-12-18T09:41:01;100702.41;;;11.59;100.00
11343;BME280;5726;42.160;24.746;2022-12-18T09:46:04;100702.19;;;11.80;100.00
11343;BME280;5726;42.160;24.746;2022-12-18T09:48:35;100703.25;;;11.84;100.00
11343;BME280;5726;42.160;24.746;2022-12-18T09:51:15;100694.94;;;11.76;100.00
11343;BME280;5726;42.160;24.746;2022-12-18T09:54:07;100705.94;;;11.79;100.00
11343;BME280;5726;42.160;24.746;2022-12-18T09:56:35;100707.00;;;11.73;100.00
11343;BME280;5726;42.160;24.746;2022-12-18T09:59:03;100710.25;;;11.85;100.00
11343;BME280;5726;42.160;24.746;2022-12-18T10:01:30;100709.16;;;11.71;100.00
11343;BME280;5726;42.160;24.746;2022-12-18T10:03:57;100703.25;;;11.84;100.00
11343;BME280;5726;42.160;24.746;2022-12-18T10:06:28;100695.72;;;11.96;100.00
11343;BME280;5726;42.160;24.746;2022-12-18T10:09:27;100707.25;;;11.77;100.00
11343;BME280;5726;42.160;24.746;2022-12-18T10:12:17;100708.88;;;11.78;100.00
11343;BME280;5726;42.160;24.746;2022-12-18T10:15:01;100705.66;;;11.86;100.00
11343;BME280;5726;42.160;24.746;2022-12-18T10:17:39;100690.09;;;11.88;100.00
11343;BME280;5726;42.160;24.746;2022-12-18T10:20:40;100702.69;;;11.72;100.00
11343;BME280;5726;42.160;24.746;2022-12-18T10:23:17;100694.66;;;11.77;100.00
11343;BME280;5726;42.160;24.746;2022-12-18T10:28:14;100704.31;;;11.73;100.00
11343;BME280;5726;42.160;24.746;2022-12-18T10:30:41;100700.28;;;11.86;100.00
11343;BME280;5726;42.160;24.746;2022-12-18T10:33:12;100702.16;;;11.90;100.00
11343;BME280;5726;42.160;24.746;2022-12-18T10:35:41;100701.91;;;12.06;100.00
11343;BME280;5726;42.160;24.746;2022-12-18T10:43:14;100711.59;;;12.02;100.00
11343;BME280;5726;42.160;24.746;2022-12-18T10:45:42;100700.28;;;11.86;100.00
11343;BME280;5726;42.160;24.746;2022-12-18T10:48:19;100719.13;;;11.91;100.00
11343;BME280;5726;42.160;24.746;2022-12-18T10:50:48;100716.41;;;12.00;100.00
11343;BME280;5726;42.160;24.746;2022-12-18T10:53:20;100739.56;;;11.96;100.00
11343;BME280;5726;42.160;24.746;2022-12-18T10:55:47;100725.03;;;12.07;100.00
11343;BME280;5726;42.160;24.746;2022-12-18T11:01:16;100737.09;;;11.75;100.00
11343;BME280;5726;42.160;24.746;2022-12-18T11:03:59;100735.78;;;11.88;100.00
11343;BME280;5726;42.160;24.746;2022-12-18T11:06:25;100746.25;;;11.89;100.00
11343;BME280;5726;42.160;24.746;2022-12-18T11:09:21;100742.78;;;11.93;100.00
11343;BME280;5726;42.160;24.746;2022-12-18T11:11:52;100739.25;;;11.73;100.00
11343;BME280;5726;42.160;24.746;2022-12-18T11:14:46;100743.59;;;11.89;100.00
11343;BME280;5726;42.160;24.746;2022-12-18T11:17:28;100740.00;;;11.54;100.00
11343;BME280;5726;42.160;24.746;2022-12-18T11:19:59;100738.41;;;11.58;100.00
11343;BME280;5726;42.160;24.746;2022-12-18T11:22:29;100750.22;;;11.52;100.00
11343;BME280;5726;42.160;24.746;2022-12-18T11:27:37;100761.16;;;11.41;100.00
11343;BME280;5726;42.160;24.746;2022-12-18T11:32:47;100760.16;;;11.00;100.00
11343;BME280;5726;42.160;24.746;2022-12-18T11:37:47;100752.22;;;10.69;100.00
11343;BME280;5726;42.160;24.746;2022-12-18T11:40:17;100757.38;;;10.81;100.00
11343;BME280;5726;42.160;24.746;2022-12-18T11:42:55;100759.25;;;10.39;100.00
11343;BME280;5726;42.160;24.746;2022-12-18T11:45:37;100760.50;;;10.68;100.00
11343;BME280;5726;42.160;24.746;2022-12-18T11:48:20;100763.69;;;10.60;100.00
11343;BME280;5726;42.160;24.746;2022-12-18T11:50:55;100760.69;;;10.56;100.00
11343;BME280;5726;42.160;24.746;2022-12-18T11:53:22;100760.50;;;10.63;100.00
11343;BME280;5726;42.160;24.746;2022-12-18T12:09:44;100766.78;;;11.39;100.00
11343;BME280;5726;42.160;24.746;2022-12-18T12:40:30;100787.81;;;11.52;100.00
11343;BME280;5726;42.160;24.746;2022-12-18T12:43:15;100792.94;;;11.53;100.00
11343;BME280;5726;42.160;24.746;2022-12-18T12:51:00;100806.09;;;11.65;100.00
11343;BME280;5726;42.160;24.746;2022-12-18T12:53:29;100807.59;;;11.41;100.00
11343;BME280;5726;42.160;24.746;2022-12-18T12:55:57;100812.00;;;11.52;100.00
11343;BME280;5726;42.160;24.746;2022-12-18T13:01:20;100829.13;;;11.46;100.00
11343;BME280;5726;42.160;24.746;2022-12-18T13:09:02;100829.69;;;11.53;100.00
11343;BME280;5726;42.160;24.746;2022-12-18T13:11:48;100837.22;;;11.51;100.00
11343;BME280;5726;42.160;24.746;2022-12-18T13:19:39;100843.47;;;11.66;100.00
11343;BME280;5726;42.160;24.746;2022-12-18T13:22:24;100847.50;;;11.74;100.00
11343;BME280;5726;42.160;24.746;2022-12-18T13:24:50;100846.72;;;11.73;100.00
11343;BME280;5726;42.160;24.746;2022-12-18T13:38:32;100856.69;;;11.83;100.00
11343;BME280;5726;42.160;24.746;2022-12-18T13:43:43;100858.56;;;11.77;100.00
11343;BME280;5726;42.160;24.746;2022-12-18T13:46:23;100866.41;;;12.03;100.00
11343;BME280;5726;42.160;24.746;2022-12-18T13:51:26;100869.00;;;11.64;100.00
11343;BME280;5726;42.160;24.746;2022-12-18T13:54:01;100864.00;;;11.41;100.00
11343;BME280;5726;42.160;24.746;2022-12-18T13:56:30;100867.69;;;11.30;100.00
11343;BME280;5726;42.160;24.746;2022-12-18T14:02:16;100873.47;;;11.48;100.00
11343;BME280;5726;42.160;24.746;2022-12-18T14:04:44;100885.09;;;11.64;100.00
11343;BME280;5726;42.160;24.746;2022-12-18T14:07:13;100883.94;;;11.50;100.00
11343;BME280;5726;42.160;24.746;2022-12-18T14:09:43;100896.78;;;11.43;100.00
11343;BME280;5726;42.160;24.746;2022-12-18T14:12:35;100904.91;;;11.53;100.00
11343;BME280;5726;42.160;24.746;2022-12-18T14:18:20;100908.16;;;11.55;100.00
11343;BME280;5726;42.160;24.746;2022-12-18T14:20:48;100909.28;;;11.64;100.00
11343;BME280;5726;42.160;24.746;2022-12-18T14:25:52;100913.00;;;11.58;100.00
11343;BME280;5726;42.160;24.746;2022-12-18T14:28:17;100923.97;;;11.51;100.00
11343;BME280;5726;42.160;24.746;2022-12-18T14:30:45;100930.47;;;11.60;100.00
11343;BME280;5726;42.160;24.746;2022-12-18T14:36:01;100931.03;;;11.26;100.00
11343;BME280;5726;42.160;24.746;2022-12-18T14:38:35;100926.56;;;11.00;100.00
11343;BME280;5726;42.160;24.746;2022-12-18T14:41:12;100929.28;;;11.05;100.00
11343;BME280;5726;42.160;24.746;2022-12-18T14:43:43;100937.16;;;11.17;100.00
11343;BME280;5726;42.160;24.746;2022-12-18T14:48:59;100941.75;;;11.21;100.00
11343;BME280;5726;42.160;24.746;2022-12-18T14:51:26;100935.09;;;11.29;100.00
11343;BME280;5726;42.160;24.746;2022-12-18T14:54:05;100945.75;;;11.19;100.00
11343;BME280;5726;42.160;24.746;2022-12-18T14:56:36;100942.59;;;11.27;100.00
11343;BME280;5726;42.160;24.746;2022-12-18T14:59:31;100945.03;;;11.28;100.00
11343;BME280;5726;42.160;24.746;2022-12-18T15:02:20;100950.09;;;11.25;100.00
11343;BME280;5726;42.160;24.746;2022-12-18T15:04:47;100947.75;;;11.33;100.00
11343;BME280;5726;42.160;24.746;2022-12-18T15:07:16;100957.09;;;11.26;100.00